Time;durP1;ratioP1;P1;durP2;ratioP2;P2;SDS_P1;SDS_P2;PMS_P1;PMS_P2;Temp;Humidity;BMP_temperature;BMP_pressure;BME280_temperature;BME280_humidity;BME280_pressure;Samples;Min_cycle;Max_cycle;Signal;HPM_P1;HPM_P2
2023/01/09 00:01:56;;;;;;;4.63;1.42;;;7.80;99.90;;;;;;5055467;28;20032;-76
2023/01/09 00:04:22;;;;;;;5.35;1.15;;;7.90;99.90;;;;;;5056441;28;20088;-76
2023/01/09 00:06:52;;;;;;;5.25;1.35;;;7.80;99.90;;;;;;5045921;28;20508;-76
2023/01/09 00:09:20;;;;;;;5.50;1.40;;;8.00;99.90;;;;;;5036863;28;20382;-76
2023/01/09 00:11:46;;;;;;;4.97;1.90;;;8.00;99.90;;;;;;5036349;28;20084;-76
2023/01/09 00:14:13;;;;;;;4.85;2.03;;;8.00;99.90;;;;;;5044935;28;20515;-76
2023/01/09 00:16:39;;;;;;;3.85;1.30;;;8.10;99.90;;;;;;5056164;28;20033;-76
2023/01/09 00:19:04;;;;;;;4.50;1.55;;;8.10;99.90;;;;;;5056359;28;20411;-76
2023/01/09 00:21:30;;;;;;;5.82;1.90;;;8.10;99.90;;;;;;5054331;28;20033;-76
2023/01/09 00:23:55;;;;;;;5.78;1.63;;;8.20;99.90;;;;;;5053978;28;20124;-76
2023/01/09 00:26:21;;;;;;;4.82;1.33;;;8.20;99.90;;;;;;5056145;28;20037;-77
2023/01/09 00:28:48;;;;;;;6.80;1.67;;;8.30;99.90;;;;;;5056080;28;20128;-77
2023/01/09 00:31:15;;;;;;;5.93;1.50;;;8.30;99.90;;;;;;5055052;28;20123;-77
2023/01/09 00:33:46;;;;;;;3.25;1.30;;;8.30;99.90;;;;;;5051196;28;20040;-77
2023/01/09 00:36:12;;;;;;;6.72;1.92;;;8.40;99.90;;;;;;5051681;28;20060;-76
2023/01/09 00:38:39;;;;;;;3.90;1.13;;;8.40;99.90;;;;;;5041368;28;20489;-75
2023/01/09 00:41:08;;;;;;;4.30;1.15;;;8.40;99.90;;;;;;5036137;28;20064;-75
2023/01/09 00:43:45;;;;;;;4.05;0.82;;;8.10;99.90;;;;;;5048401;28;20037;-75
2023/01/09 00:46:12;;;;;;;1.00;0.50;;;8.00;99.90;;;;;;5035763;28;20513;-75
2023/01/09 00:48:43;;;;;;;0.93;0.40;;;7.80;99.90;;;;;;5043480;28;20029;-76
2023/01/09 00:51:08;;;;;;;1.17;0.40;;;7.70;99.90;;;;;;5054714;28;20037;-75
2023/01/09 00:53:37;;;;;;;1.75;0.80;;;7.80;99.90;;;;;;5055614;28;20558;-75
2023/01/09 00:56:06;;;;;;;3.80;1.38;;;7.90;99.90;;;;;;5055512;28;20405;-75
2023/01/09 00:58:33;;;;;;;2.42;0.80;;;7.90;99.90;;;;;;5055578;28;20037;-75
2023/01/09 01:01:00;;;;;;;3.13;0.90;;;7.80;99.90;;;;;;5051176;28;20037;-75
2023/01/09 01:03:25;;;;;;;3.97;1.30;;;7.70;99.90;;;;;;5042052;28;20053;-75
2023/01/09 01:08:35;;;;;;;3.00;1.30;;;7.60;99.90;;;;;;5054413;28;20049;-75
2023/01/09 01:11:09;;;;;;;3.00;1.10;;;7.60;99.90;;;;;;5054444;28;20504;-76
2023/01/09 01:13:36;;;;;;;2.03;1.30;;;7.60;99.90;;;;;;5055258;28;20135;-76
2023/01/09 01:16:06;;;;;;;3.55;1.25;;;7.70;99.90;;;;;;5055233;28;20037;-75
2023/01/09 01:18:32;;;;;;;5.78;1.52;;;7.80;99.90;;;;;;5055126;28;20067;-75
2023/01/09 01:20:57;;;;;;;4.53;1.70;;;7.70;99.90;;;;;;5054344;28;20401;-76
2023/01/09 01:23:23;;;;;;;5.07;1.50;;;7.70;99.90;;;;;;5054873;28;20033;-75
2023/01/09 01:25:49;;;;;;;4.70;1.33;;;7.70;99.90;;;;;;5053032;28;20564;-76
2023/01/09 01:28:15;;;;;;;3.22;1.40;;;7.70;99.90;;;;;;5054962;28;20430;-76
2023/01/09 01:30:42;;;;;;;5.65;1.65;;;7.70;99.90;;;;;;5052791;28;20041;-76
2023/01/09 01:33:09;;;;;;;5.47;1.40;;;7.70;99.90;;;;;;5068571;28;20489;-76
2023/01/09 01:35:34;;;;;;;5.47;1.30;;;7.80;99.90;;;;;;5054059;28;20051;-76
2023/01/09 01:38:00;;;;;;;2.83;1.08;;;7.80;99.90;;;;;;5053693;28;20400;-76
2023/01/09 01:40:26;;;;;;;3.63;1.05;;;7.80;99.90;;;;;;5053953;28;20037;-76
2023/01/09 01:42:53;;;;;;;4.70;1.10;;;7.90;99.90;;;;;;5053736;28;20033;-76
2023/01/09 01:45:25;;;;;;;3.08;0.90;;;7.90;99.90;;;;;;5053359;28;20044;-76
2023/01/09 01:47:57;;;;;;;2.05;0.98;;;7.90;99.90;;;;;;5053838;28;20432;-76
2023/01/09 01:50:25;;;;;;;;;;;7.90;99.90;;;;;;5033879;28;20045;-76
2023/01/09 01:53:17;;;;;;;1.80;0.73;;;7.80;99.90;;;;;;5054430;28;19939;-76
2023/01/09 01:56:09;;;;;;;2.70;0.75;;;7.80;99.90;;;;;;5052332;28;20098;-76
2023/01/09 01:58:40;;;;;;;3.80;0.70;;;7.80;99.90;;;;;;5036719;28;20436;-76
2023/01/09 02:01:07;;;;;;;1.90;0.90;;;7.80;99.90;;;;;;5052261;28;20040;-76
2023/01/09 02:03:33;;;;;;;5.22;0.85;;;7.80;99.90;;;;;;5054048;28;20057;-76
2023/01/09 02:06:00;;;;;;;2.47;1.17;;;7.70;99.90;;;;;;5054225;28;20493;-76
2023/01/09 02:08:25;;;;;;;2.72;0.85;;;7.60;99.90;;;;;;5054177;28;20413;-76
2023/01/09 02:10:52;;;;;;;4.32;1.13;;;7.60;99.90;;;;;;5047334;28;20034;-76
2023/01/09 02:13:18;;;;;;;0.80;0.75;;;7.70;99.90;;;;;;5034047;28;20048;-76
2023/01/09 02:15:59;;;;;;;0.90;0.63;;;7.70;99.90;;;;;;5052061;28;20083;-76
2023/01/09 02:18:42;;;;;;;3.30;0.93;;;7.70;99.90;;;;;;5052691;28;20057;-76
2023/01/09 02:21:13;;;;;;;3.78;1.25;;;7.70;99.90;;;;;;5053065;28;20040;-76
2023/01/09 02:23:47;;;;;;;2.47;0.85;;;7.70;99.90;;;;;;5053753;28;20041;-76
2023/01/09 02:26:33;;;;;;;3.08;0.90;;;7.70;99.90;;;;;;5052379;28;20040;-76
2023/01/09 02:29:29;;;;;;;2.13;0.90;;;7.70;99.90;;;;;;5052508;28;20595;-76
2023/01/09 02:32:10;;;;;;;3.35;0.90;;;7.60;99.90;;;;;;5035091;28;20053;-76
2023/01/09 02:35:08;;;;;;;2.65;1.15;;;7.60;99.90;;;;;;5053868;28;20040;-76
2023/01/09 02:37:54;;;;;;;3.70;1.00;;;7.60;99.90;;;;;;5051955;28;20041;-76
2023/01/09 02:40:46;;;;;;;2.15;1.00;;;7.50;99.90;;;;;;5033859;28;20044;-76
2023/01/09 02:43:13;;;;;;;4.50;1.10;;;7.60;99.90;;;;;;5045247;28;20041;-76
2023/01/09 02:45:38;;;;;;;2.63;1.10;;;7.50;99.90;;;;;;5051689;28;20489;-76
2023/01/09 02:48:04;;;;;;;3.30;1.67;;;7.50;99.90;;;;;;5036241;28;20026;-76
2023/01/09 02:50:43;;;;;;;4.95;1.35;;;7.50;99.90;;;;;;5038530;28;20533;-76
2023/01/09 02:53:24;;;;;;;7.38;1.55;;;7.50;99.90;;;;;;5052117;28;20048;-76
2023/01/09 02:56:05;;;;;;;4.95;1.30;;;7.50;99.90;;;;;;5051046;28;20045;-76
2023/01/09 02:58:57;;;;;;;3.47;1.10;;;7.40;99.90;;;;;;5050635;28;20425;-76
2023/01/09 03:01:48;;;;;;;4.55;1.42;;;7.40;99.90;;;;;;5038918;28;20077;-76
2023/01/09 03:04:42;;;;;;;2.80;1.10;;;7.40;99.90;;;;;;5047797;28;20084;-76
2023/01/09 03:07:24;;;;;;;4.88;1.45;;;7.30;99.90;;;;;;5040636;28;20506;-76
2023/01/09 03:09:56;;;;;;;6.32;1.73;;;7.30;99.90;;;;;;5050961;28;20048;-76
2023/01/09 03:12:25;;;;;;;;;;;7.20;99.90;;;;;;5062817;28;20490;-76
2023/01/09 03:14:55;;;;;;;4.13;1.50;;;7.20;99.90;;;;;;5066890;28;19965;-76
2023/01/09 03:17:29;;;;;;;3.67;1.45;;;7.20;99.90;;;;;;5050164;28;20036;-76
2023/01/09 03:19:56;;;;;;;5.07;1.20;;;7.20;99.90;;;;;;5051457;28;20099;-76
2023/01/09 03:22:23;;;;;;;5.07;1.60;;;7.20;99.90;;;;;;5049156;28;20553;-76
2023/01/09 03:24:48;;;;;;;4.70;1.30;;;7.20;99.90;;;;;;5051289;28;20112;-75
2023/01/09 03:27:14;;;;;;;6.00;1.80;;;7.20;99.90;;;;;;5051469;28;20112;-76
2023/01/09 03:29:40;;;;;;;4.68;1.60;;;7.20;99.90;;;;;;5051550;28;20056;-76
2023/01/09 03:32:05;;;;;;;4.40;1.67;;;7.20;99.90;;;;;;5049297;28;20056;-76
2023/01/09 03:34:31;;;;;;;4.40;1.58;;;7.20;99.90;;;;;;5050869;28;20044;-75
2023/01/09 03:36:56;;;;;;;5.18;1.70;;;7.10;99.90;;;;;;5052320;28;20066;-75
2023/01/09 03:39:22;;;;;;;5.97;2.20;;;7.10;99.90;;;;;;5051382;28;20049;-75
2023/01/09 03:41:48;;;;;;;5.15;1.70;;;7.10;99.90;;;;;;5050918;28;20037;-75
2023/01/09 03:44:13;;;;;;;4.47;1.88;;;7.10;99.90;;;;;;5035753;28;20037;-76
2023/01/09 03:46:39;;;;;;;4.78;2.03;;;7.10;99.90;;;;;;5048571;28;20044;-76
2023/01/09 03:49:04;;;;;;;6.22;1.98;;;7.00;99.90;;;;;;5050369;28;20120;-75
2023/01/09 03:51:30;;;;;;;7.15;2.03;;;7.00;99.90;;;;;;5050059;28;20037;-75
2023/01/09 03:53:55;;;;;;;4.63;2.05;;;7.00;99.90;;;;;;5043968;28;20079;-76
2023/01/09 03:56:21;;;;;;;4.60;2.00;;;7.00;99.90;;;;;;5044761;28;20469;-75
2023/01/09 03:58:48;;;;;;;3.90;1.80;;;6.90;99.90;;;;;;5049813;28;20051;-76
2023/01/09 04:01:14;;;;;;;5.30;1.85;;;6.90;99.90;;;;;;5050747;28;20041;-75
2023/01/09 04:03:40;;;;;;;5.82;1.88;;;6.90;99.90;;;;;;5049424;28;20049;-75
2023/01/09 04:06:06;;;;;;;8.07;2.17;;;6.90;99.90;;;;;;5051309;28;20489;-76
2023/01/09 04:08:32;;;;;;;5.88;2.40;;;6.90;99.90;;;;;;5044615;28;20037;-75
2023/01/09 04:10:57;;;;;;;6.60;2.40;;;6.90;99.90;;;;;;5051677;28;20044;-76
2023/01/09 04:13:23;;;;;;;5.85;1.98;;;6.90;99.90;;;;;;5047339;28;20393;-76
2023/01/09 04:15:49;;;;;;;6.00;2.25;;;6.80;99.90;;;;;;5054128;28;20083;-76
2023/01/09 04:18:15;;;;;;;8.10;2.35;;;6.80;99.90;;;;;;5055933;28;20496;-76
2023/01/09 04:20:41;;;;;;;7.93;2.20;;;6.70;99.90;;;;;;5053874;28;20040;-76
2023/01/09 04:23:07;;;;;;;6.07;2.13;;;6.80;99.90;;;;;;5050918;28;20029;-75
2023/01/09 04:25:33;;;;;;;5.88;2.05;;;6.80;99.90;;;;;;5052935;28;20048;-75
2023/01/09 04:27:58;;;;;;;6.07;1.85;;;6.70;99.90;;;;;;5054345;28;20033;-76
2023/01/09 04:30:24;;;;;;;7.55;2.15;;;6.70;99.90;;;;;;5052355;28;20063;-76
2023/01/09 04:32:51;;;;;;;6.57;2.22;;;6.60;99.90;;;;;;5055095;28;20043;-76
2023/01/09 04:35:17;;;;;;;4.13;1.85;;;6.60;99.90;;;;;;5055261;28;20037;-76
2023/01/09 04:37:42;;;;;;;5.90;2.45;;;6.60;99.90;;;;;;5054576;28;20037;-76
2023/01/09 04:40:09;;;;;;;5.80;2.08;;;6.60;99.90;;;;;;5048103;28;20036;-76
2023/01/09 04:42:36;;;;;;;5.43;2.05;;;6.60;99.90;;;;;;5025227;28;20045;-75
2023/01/09 04:45:02;;;;;;;5.95;2.53;;;6.60;99.90;;;;;;5053034;28;20047;-76
2023/01/09 04:47:29;;;;;;;6.75;2.70;;;6.50;99.90;;;;;;5052686;28;20102;-76
2023/01/09 04:49:55;;;;;;;7.90;2.13;;;6.50;99.90;;;;;;5054075;28;20098;-76
2023/01/09 04:52:21;;;;;;;4.68;2.20;;;6.50;99.90;;;;;;5052371;28;20505;-75
2023/01/09 04:54:47;;;;;;;5.30;2.40;;;6.40;99.90;;;;;;5052620;28;20041;-76
2023/01/09 04:57:12;;;;;;;7.03;2.65;;;6.50;99.90;;;;;;5042371;28;20048;-76
2023/01/09 04:59:38;;;;;;;6.22;2.90;;;6.50;99.90;;;;;;5047101;28;20056;-76
2023/01/09 05:02:03;;;;;;;7.60;2.97;;;6.50;99.90;;;;;;5053137;28;20071;-76
2023/01/09 05:04:29;;;;;;;5.82;2.78;;;6.50;99.90;;;;;;5052643;28;20079;-75
2023/01/09 05:06:54;;;;;;;8.20;3.25;;;6.50;99.90;;;;;;5053385;28;20120;-75
2023/01/09 05:09:21;;;;;;;7.00;2.97;;;6.60;99.90;;;;;;5052035;28;20440;-75
2023/01/09 05:11:46;;;;;;;9.57;3.60;;;6.60;99.90;;;;;;5045647;28;20449;-75
2023/01/09 05:14:12;;;;;;;9.85;3.85;;;6.60;99.90;;;;;;5053555;28;20076;-76
2023/01/09 05:16:37;;;;;;;8.57;3.85;;;6.60;99.90;;;;;;5053267;28;20033;-76
2023/01/09 05:19:03;;;;;;;8.38;4.20;;;6.60;99.90;;;;;;5053475;28;20127;-76
2023/01/09 05:21:29;;;;;;;9.30;4.57;;;6.60;99.90;;;;;;5057489;28;20064;-76
2023/01/09 05:23:54;;;;;;;8.23;4.90;;;6.70;99.90;;;;;;5055456;28;20037;-76
2023/01/09 05:26:22;;;;;;;13.13;5.57;;;6.70;99.90;;;;;;5054244;28;20047;-76
2023/01/09 05:28:53;;;;;;;10.63;5.35;;;6.70;99.90;;;;;;5053516;28;20040;-76
2023/01/09 05:31:19;;;;;;;11.60;6.40;;;6.70;99.90;;;;;;5052575;28;20041;-76
2023/01/09 05:33:45;;;;;;;9.32;5.47;;;6.70;99.90;;;;;;5053530;28;20548;-76
2023/01/09 05:36:10;;;;;;;10.43;5.95;;;6.60;99.90;;;;;;5054906;28;20040;-76
2023/01/09 05:38:36;;;;;;;12.95;6.75;;;6.60;99.90;;;;;;5055830;28;20111;-76
2023/01/09 05:41:02;;;;;;;11.88;5.85;;;6.70;99.90;;;;;;5051873;28;20041;-76
2023/01/09 05:43:27;;;;;;;10.43;6.22;;;6.70;99.90;;;;;;5066969;28;20381;-76
2023/01/09 05:45:53;;;;;;;10.98;6.70;;;6.80;99.90;;;;;;5042756;28;20075;-76
2023/01/09 05:48:18;;;;;;;11.57;6.90;;;6.70;99.90;;;;;;5054814;28;20047;-76
2023/01/09 05:50:44;;;;;;;13.05;7.88;;;6.80;99.90;;;;;;5053411;28;20037;-76
2023/01/09 05:53:10;;;;;;;11.95;7.65;;;6.70;99.90;;;;;;5053457;28;20075;-76
2023/01/09 05:55:35;;;;;;;13.00;8.00;;;6.70;99.90;;;;;;5054958;28;20045;-76
2023/01/09 05:58:01;;;;;;;13.75;7.97;;;6.70;99.90;;;;;;5053453;28;20033;-76
2023/01/09 06:00:26;;;;;;;13.02;7.65;;;6.70;99.90;;;;;;5054209;28;20037;-76
2023/01/09 06:02:52;;;;;;;14.82;8.10;;;6.80;99.90;;;;;;5051459;28;20536;-76
2023/01/09 06:05:18;;;;;;;13.10;8.05;;;6.80;99.90;;;;;;5051714;28;20109;-76
2023/01/09 06:07:43;;;;;;;15.48;8.38;;;6.70;99.90;;;;;;5048976;28;20029;-76
2023/01/09 06:10:11;;;;;;;15.40;8.25;;;6.80;99.90;;;;;;5047082;28;20041;-76
2023/01/09 06:12:37;;;;;;;12.02;8.18;;;6.80;99.90;;;;;;5053399;28;20417;-76
2023/01/09 06:15:04;;;;;;;14.80;9.05;;;6.80;99.90;;;;;;5048565;28;20032;-76
2023/01/09 06:17:29;;;;;;;13.40;8.50;;;6.70;99.90;;;;;;5050965;28;20592;-76
2023/01/09 06:19:55;;;;;;;14.48;9.40;;;6.70;99.90;;;;;;5050430;28;20119;-76
2023/01/09 06:22:20;;;;;;;13.60;8.07;;;6.70;99.90;;;;;;5036564;28;20525;-76
2023/01/09 06:24:46;;;;;;;14.07;8.20;;;6.70;99.90;;;;;;5045496;28;20392;-76
2023/01/09 06:27:11;;;;;;;13.50;8.15;;;6.70;99.90;;;;;;5052086;28;20092;-76
2023/01/09 06:29:37;;;;;;;13.10;8.10;;;6.80;99.90;;;;;;5047365;28;20040;-76
2023/01/09 06:32:03;;;;;;;12.07;7.72;;;6.80;99.90;;;;;;5045958;28;20120;-76
2023/01/09 06:34:29;;;;;;;13.85;7.72;;;6.80;99.90;;;;;;5051695;28;20049;-76
2023/01/09 06:36:54;;;;;;;12.40;8.02;;;6.80;99.90;;;;;;5048898;28;20048;-76
2023/01/09 06:39:20;;;;;;;13.90;8.02;;;6.80;99.90;;;;;;5034697;28;20509;-76
2023/01/09 06:41:46;;;;;;;14.85;8.05;;;6.70;99.90;;;;;;5039868;28;20519;-76
2023/01/09 06:44:11;;;;;;;12.55;7.25;;;6.70;99.90;;;;;;5060952;28;20044;-76
2023/01/09 06:46:37;;;;;;;13.25;7.53;;;6.70;99.90;;;;;;5046134;28;20037;-76
2023/01/09 06:49:03;;;;;;;15.77;7.97;;;6.70;99.90;;;;;;5036227;28;20057;-76
2023/01/09 06:51:28;;;;;;;12.68;7.03;;;6.70;99.90;;;;;;5051951;28;20404;-76
2023/01/09 06:53:54;;;;;;;10.25;6.40;;;6.70;99.90;;;;;;5066685;28;20481;-76
2023/01/09 06:56:19;;;;;;;12.82;6.50;;;6.70;99.90;;;;;;5043078;28;20133;-76
2023/01/09 06:58:45;;;;;;;10.77;6.38;;;6.70;99.90;;;;;;5053019;28;20497;-76
2023/01/09 07:01:11;;;;;;;13.18;6.68;;;6.70;99.90;;;;;;5049428;28;20481;-76
2023/01/09 07:03:36;;;;;;;12.15;6.45;;;6.70;99.90;;;;;;5051258;28;20061;-76
2023/01/09 07:06:02;;;;;;;11.52;6.38;;;6.60;99.90;;;;;;5051814;28;20103;-76
2023/01/09 07:08:28;;;;;;;11.73;6.43;;;6.60;99.90;;;;;;5050426;28;20083;-77
2023/01/09 07:10:54;;;;;;;12.45;6.10;;;6.60;99.90;;;;;;5062266;28;20037;-76
2023/01/09 07:13:19;;;;;;;10.43;6.28;;;6.60;99.90;;;;;;5037145;28;20104;-76
2023/01/09 07:15:45;;;;;;;12.00;6.53;;;6.60;99.90;;;;;;5051807;28;20098;-76
2023/01/09 07:18:10;;;;;;;12.52;6.45;;;6.50;99.90;;;;;;5033807;28;20041;-76
2023/01/09 07:20:40;;;;;;;10.00;5.90;;;6.50;99.90;;;;;;5050882;28;20067;-76
2023/01/09 07:23:06;;;;;;;10.48;5.85;;;6.50;99.90;;;;;;5051795;28;20162;-76
2023/01/09 07:25:31;;;;;;;12.15;6.07;;;6.50;99.90;;;;;;5035253;28;20111;-76
2023/01/09 07:27:57;;;;;;;11.00;6.38;;;6.40;99.90;;;;;;5050526;28;20111;-76
2023/01/09 07:30:22;;;;;;;9.80;5.25;;;6.40;99.90;;;;;;5036775;28;20048;-76
2023/01/09 07:32:48;;;;;;;12.27;5.65;;;6.50;99.90;;;;;;5016712;28;20049;-76
2023/01/09 07:35:13;;;;;;;10.02;5.25;;;6.40;99.90;;;;;;5050668;28;20516;-76
2023/01/09 07:37:39;;;;;;;9.15;5.15;;;6.40;99.90;;;;;;5040698;28;20044;-76
2023/01/09 07:40:05;;;;;;;8.75;5.07;;;6.40;99.90;;;;;;5032435;28;20099;-76
2023/01/09 07:42:31;;;;;;;10.35;4.13;;;6.40;99.90;;;;;;5048032;28;20098;-76
2023/01/09 07:44:56;;;;;;;11.40;4.63;;;6.40;99.90;;;;;;5049837;28;20489;-76
2023/01/09 07:47:22;;;;;;;9.43;4.07;;;6.40;99.90;;;;;;5044718;28;20083;-76
2023/01/09 07:49:48;;;;;;;8.10;4.32;;;6.40;99.90;;;;;;5041500;28;20478;-77
2023/01/09 07:52:13;;;;;;;9.52;4.10;;;6.40;99.90;;;;;;5055161;28;20043;-76
2023/01/09 07:54:39;;;;;;;11.00;3.78;;;6.30;99.90;;;;;;5041221;28;20041;-76
2023/01/09 07:57:05;;;;;;;8.07;4.15;;;6.30;99.90;;;;;;5049918;28;20045;-76
2023/01/09 07:59:30;;;;;;;9.55;4.70;;;6.30;99.90;;;;;;5055643;28;20363;-76
2023/01/09 08:01:56;;;;;;;8.63;4.10;;;6.30;99.90;;;;;;5049200;28;20114;-76
2023/01/09 08:04:22;;;;;;;5.93;3.58;;;6.40;99.90;;;;;;5052579;28;20053;-81
2023/01/09 08:06:47;;;;;;;9.05;3.97;;;6.50;99.90;;;;;;5053879;28;20517;-76
2023/01/09 08:09:13;;;;;;;8.60;4.07;;;6.50;99.90;;;;;;5054310;28;20041;-77
2023/01/09 08:11:42;;;;;;;9.65;4.07;;;6.40;99.90;;;;;;5054433;28;20448;-76
2023/01/09 08:14:07;;;;;;;8.63;4.07;;;6.50;99.90;;;;;;5053791;28;20124;-76
2023/01/09 08:16:33;;;;;;;6.82;3.55;;;6.50;99.90;;;;;;5031616;28;20127;-76
2023/01/09 08:18:59;;;;;;;7.85;3.28;;;6.40;99.90;;;;;;5055782;28;20048;-76
2023/01/09 08:21:24;;;;;;;8.55;3.70;;;6.50;99.90;;;;;;5053040;28;20451;-76
2023/01/09 08:23:50;;;;;;;9.00;3.30;;;6.50;99.90;;;;;;5052839;28;20397;-76
2023/01/09 08:26:16;;;;;;;10.35;3.33;;;6.40;99.90;;;;;;5044584;28;20034;-76
2023/01/09 08:28:41;;;;;;;9.23;3.95;;;6.50;99.90;;;;;;5035974;28;20494;-76
2023/01/09 08:31:07;;;;;;;8.10;3.40;;;6.40;99.90;;;;;;5045429;28;20072;-77
2023/01/09 08:33:33;;;;;;;8.60;3.25;;;6.40;99.90;;;;;;5054085;28;20571;-76
2023/01/09 08:35:58;;;;;;;10.25;3.95;;;6.40;99.90;;;;;;5039289;28;20103;-76
2023/01/09 08:38:24;;;;;;;7.28;3.55;;;6.40;99.90;;;;;;5060912;28;20044;-76
2023/01/09 08:40:49;;;;;;;8.63;3.10;;;6.30;99.90;;;;;;5054595;28;20072;-76
2023/01/09 08:48:44;;;;;;;6.82;2.97;;;6.50;99.90;;;;;;5055724;28;20382;-76
2023/01/09 08:51:10;;;;;;;6.30;2.80;;;6.60;99.90;;;;;;5052974;28;20058;-76
2023/01/09 08:53:35;;;;;;;8.30;3.45;;;6.60;99.90;;;;;;5055184;28;20488;-76
2023/01/09 08:56:02;;;;;;;8.48;3.10;;;6.60;99.90;;;;;;5064647;28;20052;-76
2023/01/09 08:58:28;;;;;;;7.75;2.97;;;6.60;99.90;;;;;;5053179;28;20079;-76
2023/01/09 09:00:54;;;;;;;7.45;2.65;;;6.50;99.90;;;;;;5050320;28;20065;-76
2023/01/09 09:03:20;;;;;;;8.98;2.90;;;6.60;99.90;;;;;;5041548;28;20116;-76
2023/01/09 09:05:46;;;;;;;9.48;3.03;;;6.60;99.90;;;;;;5051367;28;20067;-77
2023/01/09 09:08:12;;;;;;;7.13;2.95;;;6.60;99.90;;;;;;5051333;28;20464;-76
2023/01/09 09:10:37;;;;;;;8.70;2.78;;;6.60;99.90;;;;;;5052698;28;20055;-77
2023/01/09 09:13:03;;;;;;;9.80;3.28;;;6.60;99.90;;;;;;5037865;28;20079;-76
2023/01/09 09:15:29;;;;;;;5.63;2.40;;;6.70;99.90;;;;;;5051012;28;20045;-76
2023/01/09 09:18:00;;;;;;;8.02;3.00;;;6.60;99.90;;;;;;5054788;28;20239;-76
2023/01/09 09:20:29;;;;;;;8.80;2.97;;;6.70;99.90;;;;;;5067299;28;20127;-76
2023/01/09 09:22:55;;;;;;;8.13;3.00;;;6.70;99.90;;;;;;5059132;28;20592;-76
2023/01/09 09:25:21;;;;;;;9.18;2.55;;;6.70;99.90;;;;;;5054687;28;20037;-77
2023/01/09 09:27:47;;;;;;;8.50;2.60;;;6.70;99.90;;;;;;5052905;28;20083;-77
2023/01/09 09:30:14;;;;;;;7.18;3.03;;;6.70;99.90;;;;;;5046023;28;20063;-76
2023/01/09 09:32:40;;;;;;;7.78;2.35;;;6.80;99.90;;;;;;5053443;28;20115;-77
2023/01/09 09:35:06;;;;;;;8.00;2.58;;;6.90;99.90;;;;;;5050580;28;20577;-77
2023/01/09 09:37:32;;;;;;;7.75;2.78;;;6.90;99.90;;;;;;5050585;28;20106;-77
2023/01/09 09:39:57;;;;;;;7.38;2.75;;;6.90;99.90;;;;;;5044773;28;20033;-77
2023/01/09 09:45:35;;;;;;;7.18;2.60;;;6.80;99.90;;;;;;5047029;28;20115;-77
2023/01/09 09:48:14;;;;;;;8.10;2.42;;;6.80;99.90;;;;;;5038140;28;20121;-77
2023/01/09 09:50:58;;;;;;;6.18;2.92;;;6.90;99.90;;;;;;5052815;28;20151;-77
2023/01/09 09:53:44;;;;;;;6.63;2.30;;;6.90;99.90;;;;;;5053578;28;20044;-77
2023/01/09 09:56:12;;;;;;;6.95;2.45;;;7.00;99.90;;;;;;5054277;28;20482;-77
2023/01/09 09:58:42;;;;;;;9.50;2.80;;;7.00;99.90;;;;;;5053229;28;20128;-77
2023/01/09 10:01:11;;;;;;;6.10;2.55;;;7.00;99.90;;;;;;5041344;28;20052;-77
2023/01/09 10:03:42;;;;;;;8.80;2.30;;;7.10;99.90;;;;;;5041506;28;20552;-77
2023/01/09 10:06:27;;;;;;;10.68;2.50;;;7.10;99.90;;;;;;5038222;28;20041;-77
2023/01/09 10:09:30;;;;;;;7.25;2.42;;;7.20;99.90;;;;;;5050683;28;20509;-77
2023/01/09 10:12:13;;;;;;;6.63;2.60;;;7.20;99.90;;;;;;5051556;28;20040;-77
2023/01/09 10:14:38;;;;;;;7.63;2.60;;;7.20;99.90;;;;;;5032251;28;20128;-76
2023/01/09 10:17:24;;;;;;;8.77;2.53;;;7.30;99.90;;;;;;5033661;28;20137;-76
2023/01/09 10:19:58;;;;;;;7.18;2.40;;;7.20;99.90;;;;;;5040966;28;20436;-76
2023/01/09 10:22:42;;;;;;;8.80;3.28;;;7.30;99.90;;;;;;5053449;28;20037;-76
2023/01/09 10:25:15;;;;;;;11.07;2.78;;;7.40;99.90;;;;;;5053654;28;20537;-76
2023/01/09 10:27:47;;;;;;;5.93;2.20;;;7.40;99.90;;;;;;5053342;28;20040;-76
2023/01/09 10:30:40;;;;;;;6.88;2.47;;;7.30;99.90;;;;;;5046682;28;20076;-77
2023/01/09 10:33:35;;;;;;;7.43;2.10;;;7.30;99.90;;;;;;5047552;28;20519;-77
2023/01/09 10:36:21;;;;;;;6.47;2.08;;;7.30;99.90;;;;;;5049468;28;20048;-77
2023/01/09 10:38:51;;;;;;;6.75;2.33;;;7.40;99.90;;;;;;5048401;28;20076;-77
2023/01/09 10:41:27;;;;;;;5.28;2.53;;;7.30;99.90;;;;;;5044886;28;20041;-77
2023/01/09 10:44:00;;;;;;;7.93;2.20;;;7.30;99.90;;;;;;5033476;28;20402;-77
2023/01/09 10:46:33;;;;;;;7.57;2.17;;;7.30;99.90;;;;;;5046756;28;20513;-77
2023/01/09 10:49:04;;;;;;;7.68;2.22;;;7.30;99.90;;;;;;5052158;28;20385;-77
2023/01/09 10:51:51;;;;;;;8.30;2.58;;;7.40;99.90;;;;;;5051789;28;20071;-77
2023/01/09 10:54:20;;;;;;;6.88;2.40;;;7.40;99.90;;;;;;5046392;28;20033;-77
2023/01/09 10:57:03;;;;;;;6.07;2.70;;;7.30;99.90;;;;;;5051911;28;20037;-77
2023/01/09 10:59:29;;;;;;;6.15;2.50;;;7.30;99.90;;;;;;5046809;28;20048;-77
2023/01/09 11:01:55;;;;;;;7.47;2.42;;;7.40;99.90;;;;;;5052368;28;20044;-77
2023/01/09 11:04:28;;;;;;;7.10;2.72;;;7.30;99.90;;;;;;5052772;28;20075;-77
2023/01/09 11:07:05;;;;;;;7.63;2.88;;;7.30;99.90;;;;;;5049756;28;20044;-77
2023/01/09 11:10:06;;;;;;;6.43;2.58;;;7.40;99.90;;;;;;5052755;28;20503;-77
2023/01/09 11:12:33;;;;;;;6.13;2.33;;;7.50;99.90;;;;;;5032907;28;20048;-77
2023/01/09 11:15:14;;;;;;;8.57;2.53;;;7.50;99.90;;;;;;5039976;28;20032;-77
2023/01/09 11:17:41;;;;;;;7.85;2.90;;;7.40;99.90;;;;;;5046911;28;20036;-77
2023/01/09 11:20:17;;;;;;;7.28;2.45;;;7.40;99.90;;;;;;5033063;28;20045;-77
2023/01/09 11:22:47;;;;;;;8.77;2.70;;;7.40;99.90;;;;;;5046637;28;20033;-77
2023/01/09 11:25:16;;;;;;;7.70;2.50;;;7.50;99.90;;;;;;5053064;28;20049;-77
2023/01/09 11:27:41;;;;;;;8.57;2.85;;;7.40;99.90;;;;;;5049074;28;20568;-77
2023/01/09 11:30:19;;;;;;;8.05;2.90;;;7.40;99.90;;;;;;5051106;28;20120;-77
2023/01/09 11:32:46;;;;;;;8.95;2.80;;;7.40;99.90;;;;;;5056345;28;20041;-77
2023/01/09 11:35:29;;;;;;;7.00;2.50;;;7.50;99.90;;;;;;5039735;28;20042;-76
2023/01/09 11:38:13;;;;;;;8.73;2.70;;;7.50;99.90;;;;;;5046530;28;20116;-77
2023/01/09 11:40:48;;;;;;;6.70;2.58;;;7.50;99.90;;;;;;5058121;28;20051;-77
2023/01/09 11:43:19;;;;;;;9.77;2.92;;;7.50;99.90;;;;;;5057232;28;20052;-77
2023/01/09 11:45:51;;;;;;;6.72;3.20;;;7.40;99.90;;;;;;5049472;28;20048;-77
2023/01/09 11:48:34;;;;;;;8.05;2.92;;;7.40;99.90;;;;;;5073599;28;20504;-77
2023/01/09 11:51:03;;;;;;;9.18;3.05;;;7.40;99.90;;;;;;5053917;28;20065;-77
2023/01/09 11:53:44;;;;;;;8.85;3.20;;;7.40;99.90;;;;;;5040991;28;20051;-77
2023/01/09 11:56:16;;;;;;;9.30;3.35;;;7.40;99.90;;;;;;5057709;28;20490;-77
2023/01/09 11:58:42;;;;;;;8.45;3.42;;;7.40;99.90;;;;;;5059249;28;20477;-77
2023/01/09 12:01:16;;;;;;;8.07;3.40;;;7.40;99.90;;;;;;5054079;28;20120;-77
2023/01/09 12:04:23;;;;;;;9.13;3.63;;;7.40;99.90;;;;;;5044211;28;20079;-77
2023/01/09 12:06:55;;;;;;;9.35;3.63;;;7.40;99.90;;;;;;5039816;28;20451;-77
2023/01/09 12:09:42;;;;;;;7.87;4.10;;;7.50;99.90;;;;;;5047973;28;20410;-77
2023/01/09 12:12:14;;;;;;;9.63;3.95;;;7.50;99.90;;;;;;5054162;28;20033;-77
2023/01/09 12:15:03;;;;;;;10.18;4.25;;;7.60;99.90;;;;;;5057825;28;20371;-78
2023/01/09 12:17:48;;;;;;;6.82;3.78;;;7.60;99.90;;;;;;5019524;28;20152;-77
2023/01/09 12:20:28;;;;;;;9.15;4.45;;;7.60;99.90;;;;;;5039916;28;20065;-78
2023/01/09 12:23:12;;;;;;;10.77;3.88;;;7.50;99.90;;;;;;5038894;28;20037;-78
2023/01/09 12:26:00;;;;;;;9.13;4.13;;;7.60;99.90;;;;;;5038912;28;20037;-78
2023/01/09 12:29:17;;;;;;;10.20;4.22;;;7.60;99.90;;;;;;5042822;28;20045;-78
2023/01/09 12:31:56;;;;;;;9.02;4.80;;;7.60;99.90;;;;;;4999838;28;20442;-77
2023/01/09 12:34:44;;;;;;;8.30;4.55;;;7.50;99.90;;;;;;5042199;28;20048;-78
2023/01/09 12:37:34;;;;;;;9.25;4.57;;;7.50;99.90;;;;;;5042010;28;20564;-78
2023/01/09 12:40:15;;;;;;;10.50;5.07;;;7.50;99.90;;;;;;5035543;28;20046;-78
2023/01/09 12:43:11;;;;;;;10.63;4.95;;;7.50;99.90;;;;;;5036032;28;20041;-78
2023/01/09 12:46:04;;;;;;;10.85;4.55;;;7.50;99.90;;;;;;5035582;28;20122;-78
2023/01/09 12:48:45;;;;;;;9.15;4.65;;;7.50;99.90;;;;;;5035545;28;20037;-77
2023/01/09 12:51:18;;;;;;;10.98;5.55;;;7.50;99.90;;;;;;5053760;28;20493;-78
2023/01/09 12:53:56;;;;;;;11.07;4.85;;;7.50;99.90;;;;;;5041200;28;20049;-78
2023/01/09 12:56:30;;;;;;;9.68;4.90;;;7.50;99.90;;;;;;5034477;28;20056;-78
2023/01/09 12:59:29;;;;;;;13.20;5.10;;;7.50;99.90;;;;;;5049853;28;20084;-77
2023/01/09 13:02:02;;;;;;;12.38;5.30;;;7.50;99.90;;;;;;5055309;28;20091;-77
2023/01/09 13:04:33;;;;;;;10.35;5.00;;;7.50;99.90;;;;;;5055130;28;20055;-78
2023/01/09 13:07:04;;;;;;;10.57;5.07;;;7.50;99.90;;;;;;5054308;28;20072;-78
2023/01/09 13:09:57;;;;;;;10.98;5.22;;;7.50;99.90;;;;;;5048661;28;20044;-78
2023/01/09 13:12:24;;;;;;;10.25;5.32;;;7.50;99.90;;;;;;5044354;28;20037;-78
2023/01/09 13:15:01;;;;;;;9.57;5.68;;;7.50;99.90;;;;;;5046637;28;20098;-78
2023/01/09 13:17:39;;;;;;;11.57;5.60;;;7.50;99.90;;;;;;5052517;28;20393;-78
2023/01/09 13:20:21;;;;;;;9.75;5.20;;;7.50;99.90;;;;;;5055003;28;20087;-78
2023/01/09 13:22:51;;;;;;;11.07;5.20;;;7.50;99.90;;;;;;5039588;28;20413;-78
2023/01/09 13:25:43;;;;;;;10.73;5.55;;;7.50;99.90;;;;;;5033726;28;20046;-78